Time;durP1;ratioP1;P1;durP2;ratioP2;P2;SDS_P1;SDS_P2;PMS_P1;PMS_P2;Temp;Humidity;BMP_temperature;BMP_pressure;BME280_temperature;BME280_humidity;BME280_pressure;Samples;Min_cycle;Max_cycle;Signal;HPM_P1;HPM_P2
2020/12/02 00:02:15;;;;;;;18.10;11.95;;;;;;;;;;5074228;28;20628;-78
2020/12/02 00:04:42;;;;;;;20.15;12.40;;;;;;;;;;5076780;28;20205;-76
2020/12/02 00:07:10;;;;;;;19.50;12.20;;;;;;;;;;5071395;28;20201;-78
2020/12/02 00:09:37;;;;;;;25.00;11.93;;;;;;;;;;5071333;28;20195;-75
2020/12/02 00:12:04;;;;;;;29.02;14.30;;;;;;;;;;5074351;28;20237;-76
2020/12/02 00:14:32;;;;;;;29.00;16.48;;;;;;;;;;5074823;28;20225;-78
2020/12/02 00:16:59;;;;;;;25.52;12.55;;;;;;;;;;5076686;28;20240;-75
2020/12/02 00:19:26;;;;;;;24.85;13.75;;;;;;;;;;5076857;28;20201;-76
2020/12/02 00:22:01;;;;;;;22.38;12.40;;;;;;;;;;5076787;28;20200;-76
2020/12/02 00:24:28;;;;;;;21.08;12.48;;;;;;;;;;5077957;28;20574;-77
2020/12/02 00:26:55;;;;;;;24.00;14.45;;;;;;;;;;5080413;28;20570;-75
2020/12/02 00:29:22;;;;;;;27.65;14.68;;;;;;;;;;5092667;28;20679;-75
2020/12/02 00:31:50;;;;;;;22.48;13.52;;;;;;;;;;5094286;28;20672;-77
2020/12/02 00:34:17;;;;;;;24.50;12.60;;;;;;;;;;5094537;28;20292;-78
2020/12/02 00:36:44;;;;;;;24.13;13.25;;;;;;;;;;5086296;28;20224;-80
2020/12/02 00:39:10;;;;;;;21.75;13.90;;;;;;;;;;5076472;28;20201;-75
2020/12/02 00:41:37;;;;;;;22.38;12.90;;;;;;;;;;5076221;28;20220;-79
2020/12/02 00:44:04;;;;;;;29.55;15.45;;;;;;;;;;5076409;28;20205;-74
2020/12/02 00:46:32;;;;;;;26.85;14.50;;;;;;;;;;5077741;28;20628;-76
2020/12/02 00:49:00;;;;;;;32.17;16.08;;;;;;;;;;5080117;28;20198;-76
2020/12/02 00:51:27;;;;;;;29.25;15.95;;;;;;;;;;5073856;28;20554;-80
2020/12/02 00:53:53;;;;;;;32.55;15.27;;;;;;;;;;5073821;28;20399;-76
2020/12/02 00:56:21;;;;;;;29.65;16.00;;;;;;;;;;5073722;28;20233;-76
2020/12/02 00:58:51;;;;;;;29.52;14.43;;;;;;;;;;5074178;28;20203;-79
2020/12/02 01:01:20;;;;;;;28.83;15.82;;;;;;;;;;5076081;28;20202;-78
2020/12/02 01:03:48;;;;;;;23.77;13.95;;;;;;;;;;5076078;28;20272;-76
2020/12/02 01:06:17;;;;;;;26.60;14.70;;;;;;;;;;5074782;28;20226;-80
2020/12/02 01:08:45;;;;;;;24.45;13.70;;;;;;;;;;5073666;28;20533;-76
2020/12/02 01:11:16;;;;;;;27.60;13.45;;;;;;;;;;5073792;28;20201;-76
2020/12/02 01:13:42;;;;;;;31.45;14.80;;;;;;;;;;5093109;28;20694;-75
2020/12/02 01:16:11;;;;;;;25.10;15.68;;;;;;;;;;5093452;28;20237;-77
2020/12/02 01:18:37;;;;;;;23.05;13.98;;;;;;;;;;5092505;28;20557;-78
2020/12/02 01:21:08;;;;;;;28.75;14.05;;;;;;;;;;5083421;28;20655;-76
2020/12/02 01:23:37;;;;;;;31.70;14.60;;;;;;;;;;5074407;28;20205;-76
2020/12/02 01:26:04;;;;;;;23.17;12.55;;;;;;;;;;5075359;28;20249;-81
2020/12/02 01:28:32;;;;;;;24.95;12.82;;;;;;;;;;5074534;28;20202;-76
2020/12/02 01:31:00;;;;;;;22.85;13.75;;;;;;;;;;5076221;28;20201;-77
2020/12/02 01:33:28;;;;;;;22.83;12.70;;;;;;;;;;5079236;28;20193;-77
2020/12/02 01:35:55;;;;;;;25.63;13.85;;;;;;;;;;5071151;28;20683;-79
2020/12/02 01:38:25;;;;;;;23.92;13.75;;;;;;;;;;5073352;28;20544;-78
2020/12/02 01:40:53;;;;;;;18.90;13.13;;;;;;;;;;5071871;28;20197;-76
2020/12/02 01:43:20;;;;;;;21.67;13.27;;;;;;;;;;5073886;28;20202;-76
2020/12/02 01:45:48;;;;;;;25.08;12.80;;;;;;;;;;5073924;28;20241;-75
2020/12/02 01:48:21;;;;;;;23.33;12.73;;;;;;;;;;5074048;28;20280;-75
2020/12/02 01:50:49;;;;;;;23.48;13.02;;;;;;;;;;5074920;28;20194;-76
2020/12/02 01:53:23;;;;;;;29.15;12.93;;;;;;;;;;5077581;28;20182;-76
2020/12/02 01:55:53;;;;;;;26.85;13.35;;;;;;;;;;5076411;28;20214;-75
2020/12/02 01:58:28;;;;;;;23.70;13.38;;;;;;;;;;5072135;28;20209;-77
2020/12/02 02:00:59;;;;;;;27.20;12.43;;;;;;;;;;5072368;28;20292;-75
2020/12/02 02:03:26;;;;;;;18.25;11.43;;;;;;;;;;5072471;28;20285;-75
2020/12/02 02:05:56;;;;;;;21.05;12.48;;;;;;;;;;5073772;28;20237;-75
2020/12/02 02:08:25;;;;;;;17.08;11.98;;;;;;;;;;5075029;28;20194;-78
2020/12/02 02:10:52;;;;;;;21.60;11.43;;;;;;;;;;5074731;28;20205;-78
2020/12/02 02:13:28;;;;;;;23.35;12.50;;;;;;;;;;5073170;28;20220;-76
2020/12/02 02:15:57;;;;;;;18.50;10.40;;;;;;;;;;5077654;28;20267;-79
2020/12/02 02:18:25;;;;;;;22.48;11.77;;;;;;;;;;5083438;28;20204;-75
2020/12/02 02:20:54;;;;;;;16.75;11.70;;;;;;;;;;5091286;28;20198;-76
2020/12/02 02:23:21;;;;;;;18.52;12.25;;;;;;;;;;5092312;28;20197;-77
2020/12/02 02:25:58;;;;;;;19.23;11.27;;;;;;;;;;5092434;28;20667;-76
2020/12/02 02:28:25;;;;;;;19.63;12.13;;;;;;;;;;5052982;28;20297;-75
2020/12/02 02:30:52;;;;;;;16.58;11.85;;;;;;;;;;5054686;28;20205;-78
2020/12/02 02:33:19;;;;;;;18.65;11.20;;;;;;;;;;5053505;28;20196;-77
2020/12/02 02:35:46;;;;;;;20.27;11.73;;;;;;;;;;5054081;28;20217;-77
2020/12/02 02:38:12;;;;;;;16.10;11.20;;;;;;;;;;5077876;28;20244;-76
2020/12/02 02:40:39;;;;;;;18.10;12.10;;;;;;;;;;5074123;28;20193;-75
2020/12/02 02:43:07;;;;;;;19.15;11.82;;;;;;;;;;5071959;28;20220;-77
2020/12/02 02:45:34;;;;;;;19.45;11.50;;;;;;;;;;5071753;28;20575;-77
2020/12/02 02:48:06;;;;;;;17.90;11.80;;;;;;;;;;5071601;28;20205;-78
2020/12/02 02:50:33;;;;;;;17.67;12.30;;;;;;;;;;5073356;28;20582;-80
2020/12/02 02:53:00;;;;;;;27.45;13.55;;;;;;;;;;5072633;28;20205;-76
2020/12/02 02:55:27;;;;;;;22.05;12.25;;;;;;;;;;5073642;28;20236;-78
2020/12/02 02:57:55;;;;;;;15.10;11.65;;;;;;;;;;5073941;28;20222;-79
2020/12/02 03:00:24;;;;;;;20.65;13.15;;;;;;;;;;5077845;28;20205;-79
2020/12/02 03:02:51;;;;;;;19.10;12.43;;;;;;;;;;5072616;28;20201;-75
2020/12/02 03:05:19;;;;;;;17.92;11.55;;;;;;;;;;5071517;28;20211;-76
2020/12/02 03:07:50;;;;;;;19.98;11.43;;;;;;;;;;5071209;28;20197;-76
2020/12/02 03:10:17;;;;;;;21.50;13.23;;;;;;;;;;5071275;28;20200;-77
2020/12/02 03:12:45;;;;;;;15.43;10.57;;;;;;;;;;5072348;28;20223;-78
2020/12/02 03:15:12;;;;;;;17.75;11.52;;;;;;;;;;5073528;28;20221;-76
2020/12/02 03:17:39;;;;;;;17.15;11.32;;;;;;;;;;5073659;28;20228;-76
2020/12/02 03:20:09;;;;;;;17.08;12.15;;;;;;;;;;5074029;28;20198;-79
2020/12/02 03:22:36;;;;;;;21.35;11.70;;;;;;;;;;5077281;28;20200;-79
2020/12/02 03:25:04;;;;;;;20.75;12.32;;;;;;;;;;5085315;28;20216;-76
2020/12/02 03:27:30;;;;;;;20.23;11.68;;;;;;;;;;5091442;28;20678;-77
2020/12/02 03:29:57;;;;;;;17.45;11.30;;;;;;;;;;5091511;28;20285;-76
2020/12/02 03:32:24;;;;;;;16.80;11.02;;;;;;;;;;5088721;28;20204;-77
2020/12/02 03:34:52;;;;;;;16.90;10.73;;;;;;;;;;5073351;28;20210;-81
2020/12/02 03:37:18;;;;;;;19.60;10.95;;;;;;;;;;5073619;28;20573;-76
2020/12/02 03:39:45;;;;;;;20.15;12.00;;;;;;;;;;5073589;28;20280;-77
2020/12/02 03:42:12;;;;;;;18.73;11.50;;;;;;;;;;5073798;28;20190;-76
2020/12/02 03:44:39;;;;;;;15.20;11.43;;;;;;;;;;5080563;28;20208;-75
2020/12/02 03:47:06;;;;;;;14.63;10.95;;;;;;;;;;5089460;28;20200;-76
2020/12/02 03:49:33;;;;;;;17.42;11.73;;;;;;;;;;5095993;28;20193;-75
2020/12/02 03:52:00;;;;;;;19.02;11.25;;;;;;;;;;5095389;28;20194;-75
2020/12/02 03:54:27;;;;;;;18.02;11.43;;;;;;;;;;5092518;28;20220;-76
2020/12/02 03:56:54;;;;;;;16.38;10.95;;;;;;;;;;5077257;28;20309;-76
2020/12/02 03:59:21;;;;;;;16.83;11.35;;;;;;;;;;5077337;28;20244;-81
2020/12/02 04:01:48;;;;;;;16.67;11.18;;;;;;;;;;5077051;28;20204;-76
2020/12/02 04:04:15;;;;;;;13.38;10.52;;;;;;;;;;5077191;28;20194;-76
2020/12/02 04:06:41;;;;;;;17.02;11.10;;;;;;;;;;5080997;28;20204;-79
2020/12/02 04:09:09;;;;;;;14.55;10.45;;;;;;;;;;5089057;28;20568;-78
2020/12/02 04:11:36;;;;;;;16.20;11.50;;;;;;;;;;5094961;28;20219;-76
2020/12/02 04:14:03;;;;;;;18.83;11.43;;;;;;;;;;5094446;28;20308;-77
2020/12/02 04:16:30;;;;;;;20.08;11.70;;;;;;;;;;5091848;28;20235;-78
2020/12/02 04:18:58;;;;;;;19.90;11.82;;;;;;;;;;5076722;28;20195;-76
2020/12/02 04:21:25;;;;;;;18.35;11.60;;;;;;;;;;5076782;28;20194;-74
2020/12/02 04:23:52;;;;;;;16.23;11.25;;;;;;;;;;5076842;28;20194;-80
2020/12/02 04:26:20;;;;;;;14.57;10.88;;;;;;;;;;5076756;28;20583;-75
2020/12/02 04:28:47;;;;;;;14.68;10.20;;;;;;;;;;5079377;28;20183;-78
2020/12/02 04:31:14;;;;;;;17.25;10.70;;;;;;;;;;5088606;28;20204;-77
2020/12/02 04:33:41;;;;;;;16.70;11.60;;;;;;;;;;5094733;28;20194;-75
2020/12/02 04:36:08;;;;;;;17.40;10.63;;;;;;;;;;5094278;28;20214;-75
2020/12/02 04:38:36;;;;;;;16.30;11.27;;;;;;;;;;5091414;28;20201;-77
2020/12/02 04:41:04;;;;;;;15.05;10.52;;;;;;;;;;5075458;28;20558;-74
2020/12/02 04:43:33;;;;;;;18.80;10.35;;;;;;;;;;5076380;28;20198;-76
2020/12/02 04:46:00;;;;;;;18.30;10.82;;;;;;;;;;5074863;28;20214;-77
2020/12/02 04:48:28;;;;;;;17.17;11.10;;;;;;;;;;5076712;28;20194;-80
2020/12/02 04:50:58;;;;;;;14.50;10.38;;;;;;;;;;5080286;28;20186;-78
2020/12/02 04:53:25;;;;;;;12.63;9.85;;;;;;;;;;5088224;28;20601;-77
2020/12/02 04:55:53;;;;;;;16.10;10.85;;;;;;;;;;5093531;28;20213;-76
2020/12/02 04:58:24;;;;;;;16.00;10.98;;;;;;;;;;5092403;28;20634;-76
2020/12/02 05:00:52;;;;;;;15.30;9.80;;;;;;;;;;5088383;28;20201;-78
2020/12/02 05:03:19;;;;;;;17.30;10.43;;;;;;;;;;5076108;28;20237;-76
2020/12/02 05:05:46;;;;;;;11.60;9.65;;;;;;;;;;5075839;28;20723;-82
2020/12/02 05:08:17;;;;;;;15.40;10.65;;;;;;;;;;5076018;28;20200;-77
2020/12/02 05:10:43;;;;;;;17.13;11.40;;;;;;;;;;5075678;28;20196;-74
2020/12/02 05:13:11;;;;;;;14.57;10.07;;;;;;;;;;5079366;28;20330;-77
2020/12/02 05:15:38;;;;;;;18.08;11.52;;;;;;;;;;5089756;28;20212;-77
2020/12/02 05:18:07;;;;;;;17.13;10.85;;;;;;;;;;5092320;28;20416;-77
2020/12/02 05:20:34;;;;;;;15.57;10.82;;;;;;;;;;5092480;28;20200;-75
2020/12/02 05:23:10;;;;;;;16.55;10.65;;;;;;;;;;5088037;28;20198;-79
2020/12/02 05:25:37;;;;;;;18.75;11.77;;;;;;;;;;5075636;28;20254;-75
2020/12/02 05:28:05;;;;;;;15.95;10.82;;;;;;;;;;5076510;28;20289;-77
2020/12/02 05:30:33;;;;;;;15.80;11.05;;;;;;;;;;5077232;28;20666;-78
2020/12/02 05:33:14;;;;;;;15.10;10.70;;;;;;;;;;5075914;28;20285;-77
2020/12/02 05:35:46;;;;;;;16.48;10.80;;;;;;;;;;5078238;28;20215;-75
2020/12/02 05:38:15;;;;;;;17.13;11.50;;;;;;;;;;5091135;28;20296;-75
2020/12/02 05:40:41;;;;;;;21.75;11.60;;;;;;;;;;5092055;28;20204;-78
2020/12/02 05:43:12;;;;;;;17.15;11.15;;;;;;;;;;5093222;28;20272;-75
2020/12/02 05:45:41;;;;;;;18.85;11.38;;;;;;;;;;5082011;28;20222;-76
2020/12/02 05:48:14;;;;;;;16.33;10.93;;;;;;;;;;5075288;28;20220;-76
2020/12/02 05:50:43;;;;;;;20.00;12.52;;;;;;;;;;5074063;28;20201;-77
2020/12/02 05:53:14;;;;;;;19.20;11.40;;;;;;;;;;5075205;28;20674;-79
2020/12/02 05:55:40;;;;;;;21.00;13.07;;;;;;;;;;5077041;28;20216;-78
2020/12/02 05:58:11;;;;;;;19.60;11.75;;;;;;;;;;5077993;28;20221;-78
2020/12/02 06:00:38;;;;;;;17.77;10.60;;;;;;;;;;5072004;28;20206;-76
2020/12/02 06:03:06;;;;;;;17.08;11.55;;;;;;;;;;5072253;28;20779;-75
2020/12/02 06:05:33;;;;;;;19.55;12.73;;;;;;;;;;5071557;28;20347;-75
2020/12/02 06:08:02;;;;;;;16.30;10.70;;;;;;;;;;5073319;28;20206;-77
2020/12/02 06:10:33;;;;;;;17.98;11.88;;;;;;;;;;5073545;28;20209;-75
2020/12/02 06:13:00;;;;;;;16.10;12.43;;;;;;;;;;5074256;28;20229;-77
2020/12/02 06:15:27;;;;;;;18.45;11.85;;;;;;;;;;5074504;28;20249;-76
2020/12/02 06:18:14;;;;;;;15.20;11.23;;;;;;;;;;5076179;28;20305;-77
2020/12/02 06:20:44;;;;;;;17.55;10.50;;;;;;;;;;5075609;28;20648;-76
2020/12/02 06:23:12;;;;;;;14.13;10.50;;;;;;;;;;5072254;28;20282;-78
2020/12/02 06:25:46;;;;;;;15.20;10.23;;;;;;;;;;5071993;28;20618;-75
2020/12/02 06:28:13;;;;;;;17.00;10.93;;;;;;;;;;5070911;28;20197;-76
2020/12/02 06:30:42;;;;;;;15.70;10.65;;;;;;;;;;5073626;28;20289;-75
2020/12/02 06:33:19;;;;;;;18.17;10.82;;;;;;;;;;5074342;28;20658;-80
2020/12/02 06:35:46;;;;;;;16.27;10.93;;;;;;;;;;5074259;28;20253;-78
2020/12/02 06:38:15;;;;;;;17.15;11.23;;;;;;;;;;5073926;28;20225;-77
2020/12/02 06:40:51;;;;;;;13.85;10.88;;;;;;;;;;5076920;28;20193;-76
2020/12/02 06:43:18;;;;;;;15.52;10.32;;;;;;;;;;5085234;28;20200;-75
2020/12/02 06:45:45;;;;;;;16.05;10.95;;;;;;;;;;5091932;28;20214;-79
2020/12/02 06:48:13;;;;;;;18.45;11.38;;;;;;;;;;5091725;28;20211;-79
2020/12/02 06:50:41;;;;;;;18.73;11.65;;;;;;;;;;5089335;28;20314;-75
2020/12/02 06:53:10;;;;;;;14.73;11.60;;;;;;;;;;5073907;28;20284;-79
2020/12/02 06:55:38;;;;;;;17.50;12.32;;;;;;;;;;5072746;28;20301;-79
2020/12/02 06:58:06;;;;;;;16.27;11.45;;;;;;;;;;5072653;28;20389;-78
2020/12/02 07:00:40;;;;;;;16.63;11.55;;;;;;;;;;5072817;28;20640;-79
2020/12/02 07:03:15;;;;;;;15.73;10.90;;;;;;;;;;5077424;28;20194;-74
2020/12/02 07:05:43;;;;;;;17.75;12.20;;;;;;;;;;5071830;28;20212;-75
2020/12/02 07:08:13;;;;;;;17.05;11.82;;;;;;;;;;5071521;28;20297;-80
2020/12/02 07:10:41;;;;;;;18.02;12.40;;;;;;;;;;5071495;28;20212;-78
2020/12/02 07:13:08;;;;;;;18.05;12.15;;;;;;;;;;5070159;28;20313;-78
2020/12/02 07:15:35;;;;;;;21.08;12.90;;;;;;;;;;5073478;28;20218;-75
2020/12/02 07:18:10;;;;;;;18.20;13.25;;;;;;;;;;5073357;28;20313;-79
2020/12/02 07:20:38;;;;;;;17.35;12.02;;;;;;;;;;5072055;28;20200;-78
2020/12/02 07:23:05;;;;;;;22.13;13.23;;;;;;;;;;5074489;28;20198;-78
2020/12/02 07:25:32;;;;;;;19.80;12.20;;;;;;;;;;5076210;28;20220;-83
2020/12/02 07:27:59;;;;;;;24.83;12.80;;;;;;;;;;5088158;28;20198;-78
2020/12/02 07:30:31;;;;;;;18.75;12.38;;;;;;;;;;5091056;28;20193;-76
2020/12/02 07:33:09;;;;;;;17.67;11.63;;;;;;;;;;5090408;28;20200;-76
2020/12/02 07:35:36;;;;;;;22.60;12.52;;;;;;;;;;5083724;28;20224;-77
2020/12/02 07:38:10;;;;;;;18.48;13.07;;;;;;;;;;5073409;28;20224;-79
2020/12/02 07:40:38;;;;;;;21.80;13.10;;;;;;;;;;5073362;28;20198;-76
2020/12/02 07:43:08;;;;;;;19.83;12.63;;;;;;;;;;5073276;28;20556;-79
2020/12/02 07:45:35;;;;;;;19.55;13.18;;;;;;;;;;5073054;28;20615;-79
2020/12/02 07:48:04;;;;;;;21.90;13.38;;;;;;;;;;5075296;28;20210;-77
2020/12/02 07:50:33;;;;;;;18.50;12.98;;;;;;;;;;5054724;28;20199;-80
2020/12/02 07:53:05;;;;;;;20.10;12.55;;;;;;;;;;5054805;28;20237;-75
2020/12/02 07:55:35;;;;;;;19.20;12.77;;;;;;;;;;5050930;28;20660;-76
2020/12/02 07:58:02;;;;;;;17.85;13.15;;;;;;;;;;5101370;28;20228;-80
2020/12/02 08:00:34;;;;;;;18.75;13.00;;;;;;;;;;5073369;28;20285;-78
2020/12/02 08:03:01;;;;;;;18.92;12.05;;;;;;;;;;5073540;28;20194;-80
2020/12/02 08:05:36;;;;;;;20.83;12.43;;;;;;;;;;5073248;28;20254;-79
2020/12/02 08:08:03;;;;;;;14.48;11.45;;;;;;;;;;5076354;28;20205;-75
2020/12/02 08:10:33;;;;;;;21.65;13.18;;;;;;;;;;5080887;28;20194;-77
2020/12/02 08:13:01;;;;;;;20.02;12.85;;;;;;;;;;5091001;28;20214;-77
2020/12/02 08:15:28;;;;;;;17.30;12.18;;;;;;;;;;5090251;28;20299;-76
2020/12/02 08:18:11;;;;;;;17.17;12.77;;;;;;;;;;5091051;28;20315;-81
2020/12/02 08:20:38;;;;;;;19.23;12.23;;;;;;;;;;5071526;28;20206;-76
2020/12/02 08:23:08;;;;;;;17.63;12.18;;;;;;;;;;5073806;28;20286;-75
2020/12/02 08:25:37;;;;;;;18.48;13.07;;;;;;;;;;5071889;28;20264;-80
2020/12/02 08:28:07;;;;;;;17.23;11.90;;;;;;;;;;5073032;28;20558;-75
2020/12/02 08:30:35;;;;;;;20.05;13.57;;;;;;;;;;5076956;28;20303;-75
2020/12/02 08:33:02;;;;;;;20.30;13.48;;;;;;;;;;5075565;28;20201;-75
2020/12/02 08:35:31;;;;;;;18.83;11.90;;;;;;;;;;5074516;28;20308;-79
2020/12/02 08:37:59;;;;;;;20.17;13.05;;;;;;;;;;5072733;28;20710;-83
2020/12/02 08:40:28;;;;;;;20.58;13.77;;;;;;;;;;5074234;28;20209;-84
2020/12/02 08:43:09;;;;;;;21.58;12.77;;;;;;;;;;5076550;28;20244;-76
2020/12/02 08:45:36;;;;;;;20.90;13.80;;;;;;;;;;5076408;28;20254;-75
2020/12/02 08:48:03;;;;;;;20.27;12.60;;;;;;;;;;5074609;28;20195;-75
2020/12/02 08:50:31;;;;;;;14.98;12.10;;;;;;;;;;5080371;28;20277;-75
2020/12/02 08:52:59;;;;;;;19.48;12.75;;;;;;;;;;5085389;28;20539;-81
2020/12/02 08:55:26;;;;;;;17.13;12.85;;;;;;;;;;5093028;28;20691;-76
2020/12/02 08:57:54;;;;;;;20.60;13.73;;;;;;;;;;5062568;28;20218;-78
2020/12/02 09:00:24;;;;;;;21.73;14.23;;;;;;;;;;5067074;28;20197;-78
2020/12/02 09:02:51;;;;;;;18.55;13.05;;;;;;;;;;5076158;28;20194;-77
2020/12/02 09:05:18;;;;;;;17.23;12.48;;;;;;;;;;5076104;28;20758;-78
2020/12/02 09:07:45;;;;;;;19.10;13.10;;;;;;;;;;5075925;28;20226;-80
2020/12/02 09:10:12;;;;;;;15.32;10.98;;;;;;;;;;5075992;28;20289;-81
2020/12/02 09:12:38;;;;;;;17.50;12.65;;;;;;;;;;5078706;28;20260;-76
2020/12/02 09:15:06;;;;;;;12.18;9.75;;;;;;;;;;5076268;28;20214;-77
2020/12/02 09:17:34;;;;;;;13.30;9.90;;;;;;;;;;5058659;28;20265;-77
2020/12/02 09:20:05;;;;;;;15.10;10.65;;;;;;;;;;5053360;28;20191;-78
2020/12/02 09:22:32;;;;;;;17.50;11.65;;;;;;;;;;5053621;28;20285;-78
2020/12/02 09:24:59;;;;;;;14.13;10.65;;;;;;;;;;5056313;28;20225;-79
2020/12/02 09:27:27;;;;;;;16.20;10.68;;;;;;;;;;5087546;28;20531;-76
2020/12/02 09:29:54;;;;;;;12.90;9.48;;;;;;;;;;5056569;28;20195;-75
2020/12/02 09:32:21;;;;;;;15.88;10.75;;;;;;;;;;5055512;28;20286;-77
2020/12/02 09:34:48;;;;;;;11.85;9.63;;;;;;;;;;5073837;28;20296;-77
2020/12/02 09:37:15;;;;;;;14.65;10.45;;;;;;;;;;5076406;28;20706;-77
2020/12/02 09:39:43;;;;;;;12.80;9.25;;;;;;;;;;5072254;28;20299;-79
2020/12/02 09:42:18;;;;;;;15.15;10.43;;;;;;;;;;5104982;28;20625;-78
2020/12/02 09:44:48;;;;;;;12.30;10.27;;;;;;;;;;5067264;28;20297;-79
2020/12/02 09:47:16;;;;;;;12.13;9.98;;;;;;;;;;5072264;28;20252;-75
2020/12/02 09:49:44;;;;;;;15.27;10.85;;;;;;;;;;5074977;28;20194;-76
2020/12/02 09:52:21;;;;;;;14.25;11.50;;;;;;;;;;5073253;28;20190;-80
2020/12/02 09:54:48;;;;;;;14.48;11.25;;;;;;;;;;5075079;28;20221;-76
2020/12/02 09:57:16;;;;;;;15.00;10.75;;;;;;;;;;5077653;28;21690;-79
2020/12/02 09:59:43;;;;;;;14.48;10.30;;;;;;;;;;5076406;28;20197;-76
2020/12/02 10:02:15;;;;;;;14.20;10.40;;;;;;;;;;5071874;28;20285;-78
2020/12/02 10:04:52;;;;;;;18.13;11.63;;;;;;;;;;5072222;28;20287;-80
2020/12/02 10:07:27;;;;;;;14.10;10.82;;;;;;;;;;5072645;28;20228;-78
2020/12/02 10:10:02;;;;;;;17.90;10.93;;;;;;;;;;5074623;28;20200;-77
2020/12/02 10:12:35;;;;;;;18.17;12.82;;;;;;;;;;5055244;28;20276;-77
2020/12/02 10:15:10;;;;;;;16.77;11.65;;;;;;;;;;5054403;28;20306;-79
2020/12/02 10:17:43;;;;;;;15.43;11.23;;;;;;;;;;5071326;28;20224;-77
2020/12/02 10:20:17;;;;;;;14.88;9.90;;;;;;;;;;5078103;28;20322;-78
2020/12/02 10:23:01;;;;;;;15.40;10.25;;;;;;;;;;5086152;28;20280;-78
2020/12/02 10:25:34;;;;;;;14.05;9.63;;;;;;;;;;5092249;28;20704;-78
2020/12/02 10:28:10;;;;;;;13.73;10.05;;;;;;;;;;5092648;28;20224;-77
2020/12/02 10:30:42;;;;;;;13.63;9.55;;;;;;;;;;5082962;28;20233;-78
2020/12/02 10:33:16;;;;;;;13.05;10.00;;;;;;;;;;5054274;28;20290;-78
2020/12/02 10:35:44;;;;;;;12.85;9.35;;;;;;;;;;5052793;28;20232;-75
2020/12/02 10:38:13;;;;;;;15.70;10.35;;;;;;;;;;5054242;28;20637;-78
2020/12/02 10:40:43;;;;;;;10.98;9.07;;;;;;;;;;5060224;28;20190;-76
2020/12/02 10:43:17;;;;;;;12.65;8.90;;;;;;;;;;5078034;28;21518;-77
2020/12/02 10:45:45;;;;;;;15.35;11.00;;;;;;;;;;5089053;28;20266;-79
2020/12/02 10:48:21;;;;;;;15.00;10.80;;;;;;;;;;5092532;28;20227;-81
2020/12/02 10:50:49;;;;;;;14.38;9.68;;;;;;;;;;5092685;28;20197;-78
2020/12/02 10:53:17;;;;;;;14.77;9.68;;;;;;;;;;5082500;28;20202;-78
2020/12/02 10:55:44;;;;;;;14.55;10.02;;;;;;;;;;5065755;28;20241;-76
2020/12/02 10:58:14;;;;;;;11.52;9.05;;;;;;;;;;5053859;28;20223;-76
2020/12/02 11:00:41;;;;;;;13.27;9.43;;;;;;;;;;5086005;28;20257;-77
2020/12/02 11:03:23;;;;;;;12.15;9.02;;;;;;;;;;5057854;28;20217;-82
2020/12/02 11:06:04;;;;;;;14.30;9.98;;;;;;;;;;5076764;28;20233;-76
2020/12/02 11:08:37;;;;;;;11.30;8.15;;;;;;;;;;5070929;28;20277;-77
2020/12/02 11:11:10;;;;;;;11.13;8.40;;;;;;;;;;5071756;28;20285;-76
2020/12/02 11:13:43;;;;;;;9.45;7.30;;;;;;;;;;5070899;28;20316;-73
2020/12/02 11:16:15;;;;;;;10.20;7.22;;;;;;;;;;5073123;28;20307;-79
2020/12/02 11:18:57;;;;;;;8.88;7.63;;;;;;;;;;5077532;28;20317;-81
2020/12/02 11:21:31;;;;;;;8.20;7.18;;;;;;;;;;5067007;28;20198;-78
2020/12/02 11:24:08;;;;;;;9.95;8.00;;;;;;;;;;5051317;28;20586;-77
2020/12/02 11:26:38;;;;;;;11.95;8.60;;;;;;;;;;5051811;28;20190;-80
2020/12/02 11:29:06;;;;;;;11.93;9.23;;;;;;;;;;5064264;28;20289;-79
2020/12/02 11:31:41;;;;;;;12.73;9.63;;;;;;;;;;5073478;28;20201;-76
2020/12/02 11:34:17;;;;;;;12.48;8.68;;;;;;;;;;5070441;28;20276;-78
2020/12/02 11:36:47;;;;;;;11.95;8.88;;;;;;;;;;5053543;28;20195;-75
2020/12/02 11:39:21;;;;;;;15.27;9.20;;;;;;;;;;5066809;28;20281;-79
2020/12/02 11:41:52;;;;;;;11.90;9.25;;;;;;;;;;5078654;28;20201;-78
2020/12/02 11:44:22;;;;;;;14.23;10.20;;;;;;;;;;5082378;28;20513;-73
2020/12/02 11:46:52;;;;;;;14.02;10.32;;;;;;;;;;5051919;28;20536;-79
2020/12/02 11:49:21;;;;;;;14.52;10.40;;;;;;;;;;5064502;28;20281;-80
2020/12/02 11:51:53;;;;;;;14.07;10.05;;;;;;;;;;5089056;28;20210;-77
2020/12/02 11:54:22;;;;;;;15.73;10.13;;;;;;;;;;5049396;28;20667;-78
2020/12/02 11:56:51;;;;;;;16.77;11.20;;;;;;;;;;5049504;28;20198;-75
2020/12/02 11:59:19;;;;;;;13.27;9.68;;;;;;;;;;5085487;28;20237;-79
2020/12/02 12:01:50;;;;;;;14.30;9.90;;;;;;;;;;5071985;28;20658;-77
2020/12/02 12:04:30;;;;;;;14.05;10.02;;;;;;;;;;5075302;28;20186;-74
2020/12/02 12:06:59;;;;;;;14.60;10.82;;;;;;;;;;5090477;28;20207;-75
2020/12/02 12:09:30;;;;;;;13.80;9.98;;;;;;;;;;5091630;28;20204;-79
2020/12/02 12:12:01;;;;;;;15.20;10.65;;;;;;;;;;5089815;28;20562;-76
2020/12/02 12:14:30;;;;;;;16.25;11.57;;;;;;;;;;5071513;28;20222;-77
2020/12/02 12:17:02;;;;;;;17.88;12.02;;;;;;;;;;5053219;28;20682;-75
2020/12/02 12:19:33;;;;;;;14.07;11.10;;;;;;;;;;5084924;28;20202;-74
2020/12/02 12:22:10;;;;;;;14.90;11.48;;;;;;;;;;5061418;28;20194;-76
2020/12/02 12:24:38;;;;;;;15.80;11.73;;;;;;;;;;5078123;28;20304;-77
2020/12/02 12:27:05;;;;;;;15.40;11.95;;;;;;;;;;5077963;28;20273;-74
2020/12/02 12:29:31;;;;;;;14.02;11.10;;;;;;;;;;5072722;28;20205;-74
2020/12/02 12:32:05;;;;;;;15.40;11.45;;;;;;;;;;5065449;28;20198;-77
2020/12/02 12:34:36;;;;;;;14.75;11.90;;;;;;;;;;5054477;28;20207;-77
2020/12/02 12:37:05;;;;;;;15.38;10.75;;;;;;;;;;5073677;28;20705;-77
2020/12/02 12:39:36;;;;;;;14.05;11.10;;;;;;;;;;5075050;28;20195;-78
2020/12/02 12:42:04;;;;;;;14.57;10.93;;;;;;;;;;5108895;28;20216;-77
2020/12/02 12:44:33;;;;;;;16.20;12.05;;;;;;;;;;5067201;28;20213;-77
2020/12/02 12:47:03;;;;;;;15.63;11.43;;;;;;;;;;5107294;27;20277;-73
2020/12/02 12:49:31;;;;;;;14.75;11.10;;;;;;;;;;5078018;28;20193;-76
2020/12/02 12:51:59;;;;;;;14.85;11.45;;;;;;;;;;5073028;28;20285;-76
2020/12/02 12:54:26;;;;;;;14.25;11.15;;;;;;;;;;5073900;28;20283;-76
2020/12/02 12:56:55;;;;;;;15.95;10.55;;;;;;;;;;5074261;28;20557;-80
2020/12/02 12:59:24;;;;;;;17.10;11.48;;;;;;;;;;5067608;28;20202;-74
2020/12/02 13:01:52;;;;;;;16.30;11.73;;;;;;;;;;5087953;28;20290;-77
2020/12/02 13:04:21;;;;;;;14.18;10.80;;;;;;;;;;5087985;28;20551;-77
2020/12/02 13:06:53;;;;;;;14.95;10.82;;;;;;;;;;5057035;28;20241;-74
2020/12/02 13:09:23;;;;;;;18.10;12.30;;;;;;;;;;5074035;28;20204;-78
2020/12/02 13:11:55;;;;;;;15.70;11.10;;;;;;;;;;5077498;28;20205;-78
2020/12/02 13:14:26;;;;;;;17.42;11.93;;;;;;;;;;5073091;28;20700;-78
2020/12/02 13:16:58;;;;;;;14.73;11.30;;;;;;;;;;5105447;28;20719;-75
2020/12/02 13:19:29;;;;;;;17.38;12.70;;;;;;;;;;5105838;28;20297;-83
2020/12/02 13:21:58;;;;;;;15.77;11.55;;;;;;;;;;5076305;28;20745;-80
2020/12/02 13:24:30;;;;;;;17.40;11.90;;;;;;;;;;5078111;28;20275;-75
2020/12/02 13:26:59;;;;;;;16.10;12.23;;;;;;;;;;5073153;28;20198;-76
2020/12/02 13:29:31;;;;;;;18.83;12.15;;;;;;;;;;5065947;28;20568;-78
2020/12/02 13:32:01;;;;;;;17.40;12.15;;;;;;;;;;5058799;28;20252;-76
2020/12/02 13:34:28;;;;;;;16.25;10.82;;;;;;;;;;5074108;28;20219;-78
2020/12/02 13:36:55;;;;;;;15.13;11.70;;;;;;;;;;5075335;28;20281;-78
2020/12/02 13:39:22;;;;;;;16.05;11.35;;;;;;;;;;5064478;28;20241;-75
2020/12/02 13:41:53;;;;;;;16.10;11.90;;;;;;;;;;5056202;28;20282;-81
2020/12/02 13:44:21;;;;;;;15.20;11.90;;;;;;;;;;5097342;27;20195;-80
2020/12/02 13:46:50;;;;;;;19.40;12.30;;;;;;;;;;5077362;28;20281;-76
2020/12/02 13:49:16;;;;;;;17.17;12.45;;;;;;;;;;5072971;28;20281;-78
2020/12/02 13:51:47;;;;;;;16.65;12.20;;;;;;;;;;5072694;28;20282;-79
2020/12/02 13:54:16;;;;;;;16.23;11.45;;;;;;;;;;5069660;28;20190;-81
2020/12/02 13:56:50;;;;;;;14.20;11.07;;;;;;;;;;5105596;28;20285;-77
2020/12/02 13:59:27;;;;;;;14.98;10.52;;;;;;;;;;5074598;28;20234;-74
2020/12/02 14:02:05;;;;;;;15.18;10.68;;;;;;;;;;5074833;28;20198;-74
2020/12/02 14:04:35;;;;;;;15.40;11.27;;;;;;;;;;5075092;28;20214;-73
2020/12/02 14:07:02;;;;;;;16.95;11.02;;;;;;;;;;5076911;28;20193;-77
2020/12/02 14:09:32;;;;;;;13.13;10.30;;;;;;;;;;5077351;28;20233;-74
2020/12/02 14:12:01;;;;;;;14.00;11.13;;;;;;;;;;5070621;28;20190;-75
2020/12/02 14:14:29;;;;;;;15.55;11.65;;;;;;;;;;5104532;28;20218;-79
2020/12/02 14:16:57;;;;;;;15.18;10.88;;;;;;;;;;5072517;28;20247;-77
2020/12/02 14:19:24;;;;;;;16.75;12.38;;;;;;;;;;5073478;28;20225;-78
2020/12/02 14:22:06;;;;;;;16.42;12.00;;;;;;;;;;5074559;28;20285;-78
2020/12/02 14:24:33;;;;;;;14.90;11.52;;;;;;;;;;5069867;28;20305;-80
2020/12/02 14:27:00;;;;;;;14.75;11.48;;;;;;;;;;5066306;28;20201;-77
2020/12/02 14:29:27;;;;;;;18.95;12.20;;;;;;;;;;5099432;27;20275;-77
2020/12/02 14:31:54;;;;;;;13.10;10.73;;;;;;;;;;5079617;28;20194;-80